Keyes, OK (73947)

6:18 PM CDT on July 05, 2015 (GMT -0500)
Fort Wiegers | | Change Station
CLOSE
Current Station
Personal Weather Station
Location: Elkhart, KS
Elevation: 3554 ft
Nearby Weather Stations

Elev 3554 ft 37.04 °N, 101.97 °W | Updated 1 second ago

Clear
Clear
93.0 °F
Feels Like 93 °F
N
22.0
Wind Variable Wind from South
Gusts 28.0 mph

Today
High -- | Low -- °F
--% Chance of Precip.
Yesterday
High -- | Low -- °F
Precip. -- in
6:35 AM 9:11 PM
Waning Gibbous, 81% visible
Pressure 29.70 in
Visibility 10.0 miles
Clouds Clear
Heat Index 93 °F
Dew Point 60 °F
Humidity 33%
Rainfall 0.00 in
Snow Depth Not available.
UV 5 out of 12
Pollen 4.70 out of 12
Air Quality Not available.
Flu Activity Not available.
METAR KGUY 052253Z AUTO 18018G24KT 10SM CLR 34/13 A2986 RMK AO2 PK WND 19030/2238 SLP058 T03390128

More Conditions Fewer Conditions

Pressure 29.70 in
Visibility 10.0 miles
Clouds Clear
Heat Index 93 °F
Dew Point 60 °F
Humidity 33%
Rainfall 0.00 in
Snow Depth Not available.
UV 5 out of 12
Pollen 4.70 out of 12
Air Quality Not available.
Flu Activity Not available.
METAR KGUY 052253Z AUTO 18018G24KT 10SM CLR 34/13 A2986 RMK AO2 PK WND 19030/2238 SLP058 T03390128

More Conditions Fewer Conditions

10-Day Weather Forecast

×

Almanac

Astronomy

Jul. 05, 2015 Rise Set
Actual Time
Civil Twilight
Nautical Twilight
Astronomical Twilight
Moon
Length of Visible Light
Length of Day
Tomorrow will be .
, % of the Moon is Illuminated

Today's Extremes

State Highs State Lows

Community

WunderPhotos

Upload Photos

1,835,419 photos uploaded!

WunderBlogs® & News

Nearby

Air Quality

  Air Quality AQ Index Pollutant
Not available.

Snow Depth

Station Depth Elevation

Earthquake Activity

City Distance Mag. Time & Date
Minimum magnitude displayed is 2.5.

Coastal Water Temperatures

Place Temperature

Stations

Nearby Weather Stations

Station Location Temp. Windchill Dew Point Humidity Wind Precip. Elev Updated Type